NCAR-RAP Real-Time Weather Data

Output produced by METARs form (06 May 2021  15:31 UTC)
found at http://weather.rap.ucar.edu/surface/
 
KTUL 061453Z 32013KT 10SM CLR 19/11 A3022 RMK AO2 SLP230 T01890111 51010
KTUL 061353Z 32007KT 10SM FEW100 FEW150 17/11 A3022 RMK AO2 SLP228 T01670106
KTUL 061253Z 28003KT 10SM FEW100 FEW150 14/10 A3021 RMK AO2 SLP225 T01440100
KTUL 061153Z 29003KT 10SM FEW100 FEW150 12/09 A3019 RMK AO2 SLP220 T01220089 10139 20106 51013
KTUL 061053Z 27005KT 10SM FEW090 11/09 A3018 RMK AO2 SLP215 T01060094
KTUL 060953Z 31003KT 10SM FEW100 11/10 A3017 RMK AO2 SLP212 T01060100
KTUL 060853Z 26004KT 10SM FEW170 12/10 A3015 RMK AO2 SLP206 T01170100 53002
KTUL 060753Z 32004KT 10SM FEW060 FEW170 12/11 A3014 RMK AO2 SLP203 T01170106
KTUL 060653Z 00000KT 10SM BKN150 OVC170 14/10 A3015 RMK AO2 SLP205 T01390100
KTUL 060553Z 35005KT 10SM BKN170 14/11 A3015 RMK AO2 SLP204 60000 T01390111 10217 20139 402330056 55010
KTUL 060453Z 12004KT 10SM BKN100 OVC120 14/11 A3012 RMK AO2 PRESFR SLP195 T01440106
KTUL 060353Z 20003KT 10SM BKN095 OVC110 17/11 A3018 RMK AO2 RAE50 SLP216 P0000 T01670106
KTUL 060253Z 30007KT 10SM -RA OVC090 16/11 A3018 RMK AO2 RAB53 PRESRR SLP215 P0000 60000 T01610111 53027
KTUL 060153Z 11004KT 10SM FEW120 BKN170 17/09 A3011 RMK AO2 SLP191 T01670094
KTUL 060053Z 07004KT 10SM BKN170 20/05 A3009 RMK AO2 SLP186 T02000050